sensor_id;sensor_type;location;lat;lon;timestamp;pressure;altitude;pressure_sealevel;temperature
67515;BMP280;60646;55.802;37.032;2023-04-16T00:01:22;101228.09;;;6.93
67515;BMP280;60646;55.802;37.032;2023-04-16T00:03:48;101228.09;;;6.93
67515;BMP280;60646;55.802;37.032;2023-04-16T00:06:13;101212.22;;;6.73
67515;BMP280;60646;55.802;37.032;2023-04-16T00:08:39;101222.72;;;6.80
67515;BMP280;60646;55.802;37.032;2023-04-16T00:11:05;101246.78;;;6.89
67515;BMP280;60646;55.802;37.032;2023-04-16T00:13:31;101234.78;;;6.81
67515;BMP280;60646;55.802;37.032;2023-04-16T00:15:57;101237.44;;;6.81
67515;BMP280;60646;55.802;37.032;2023-04-16T00:18:24;101249.09;;;6.87
67515;BMP280;60646;55.802;37.032;2023-04-16T00:20:50;101222.16;;;6.69
67515;BMP280;60646;55.802;37.032;2023-04-16T00:23:16;101230.47;;;6.71
67515;BMP280;60646;55.802;37.032;2023-04-16T00:25:42;101245.41;;;6.81
67515;BMP280;60646;55.802;37.032;2023-04-16T00:28:08;101212.69;;;6.52
67515;BMP280;60646;55.802;37.032;2023-04-16T00:30:34;101229.47;;;6.65
67515;BMP280;60646;55.802;37.032;2023-04-16T00:33:01;101233.34;;;6.60
67515;BMP280;60646;55.802;37.032;2023-04-16T00:35:27;101233.00;;;6.58
67515;BMP280;60646;55.802;37.032;2023-04-16T00:37:53;101232.41;;;6.51
67515;BMP280;60646;55.802;37.032;2023-04-16T00:40:19;101261.69;;;6.67
67515;BMP280;60646;55.802;37.032;2023-04-16T00:42:45;101227.66;;;6.42
67515;BMP280;60646;55.802;37.032;2023-04-16T00:45:11;101239.31;;;6.48
67515;BMP280;60646;55.802;37.032;2023-04-16T00:47:38;101231.72;;;6.47
67515;BMP280;60646;55.802;37.032;2023-04-16T00:50:05;101235.59;;;6.42
67515;BMP280;60646;55.802;37.032;2023-04-16T00:52:31;101260.38;;;6.55
67515;BMP280;60646;55.802;37.032;2023-04-16T00:54:58;101251.47;;;6.46
67515;BMP280;60646;55.802;37.032;2023-04-16T00:57:24;101255.97;;;6.49
67515;BMP280;60646;55.802;37.032;2023-04-16T00:59:50;101245.19;;;6.40
67515;BMP280;60646;55.802;37.032;2023-04-16T01:02:16;101239.97;;;6.33
67515;BMP280;60646;55.802;37.032;2023-04-16T01:04:42;101246.31;;;6.39
67515;BMP280;60646;55.802;37.032;2023-04-16T01:07:08;101230.69;;;6.25
67515;BMP280;60646;55.802;37.032;2023-04-16T01:09:33;101225.38;;;6.25
67515;BMP280;60646;55.802;37.032;2023-04-16T01:12:02;101224.00;;;6.16
67515;BMP280;60646;55.802;37.032;2023-04-16T01:14:27;101249.44;;;6.34
67515;BMP280;60646;55.802;37.032;2023-04-16T01:16:54;101242.69;;;6.29
67515;BMP280;60646;55.802;37.032;2023-04-16T01:19:19;101246.09;;;6.30
67515;BMP280;60646;55.802;37.032;2023-04-16T01:21:45;101221.16;;;6.07
67515;BMP280;60646;55.802;37.032;2023-04-16T01:24:11;101207.69;;;5.98
67515;BMP280;60646;55.802;37.032;2023-04-16T01:26:38;101256.47;;;6.24
67515;BMP280;60646;55.802;37.032;2023-04-16T01:29:04;101242.44;;;6.23
67515;BMP280;60646;55.802;37.032;2023-04-16T01:31:31;101213.00;;;5.98
67515;BMP280;60646;55.802;37.032;2023-04-16T01:34:14;101224.94;;;6.06
67515;BMP280;60646;55.802;37.032;2023-04-16T01:36:40;101221.28;;;6.00
67515;BMP280;60646;55.802;37.032;2023-04-16T01:39:06;101213.00;;;5.98
67515;BMP280;60646;55.802;37.032;2023-04-16T01:41:36;101217.59;;;5.94
67515;BMP280;60646;55.802;37.032;2023-04-16T01:44:02;101231.75;;;6.07
67515;BMP280;60646;55.802;37.032;2023-04-16T01:46:30;101243.38;;;6.13
67515;BMP280;60646;55.802;37.032;2023-04-16T01:48:57;101249.13;;;6.12
67515;BMP280;60646;55.802;37.032;2023-04-16T01:51:23;101226.59;;;6.00
67515;BMP280;60646;55.802;37.032;2023-04-16T01:53:50;101208.59;;;5.88
67515;BMP280;60646;55.802;37.032;2023-04-16T01:56:15;101225.84;;;6.00
67515;BMP280;60646;55.802;37.032;2023-04-16T01:58:41;101213.78;;;5.95
67515;BMP280;60646;55.802;37.032;2023-04-16T02:01:08;101218.75;;;5.93
67515;BMP280;60646;55.802;37.032;2023-04-16T02:03:35;101219.91;;;5.92
67515;BMP280;60646;55.802;37.032;2023-04-16T02:06:02;101232.53;;;6.04
67515;BMP280;60646;55.802;37.032;2023-04-16T02:08:28;101201.88;;;5.84
67515;BMP280;60646;55.802;37.032;2023-04-16T02:10:55;101234.88;;;6.02
67515;BMP280;60646;55.802;37.032;2023-04-16T02:13:22;101194.47;;;5.75
67515;BMP280;60646;55.802;37.032;2023-04-16T02:15:51;101221.88;;;5.88
67515;BMP280;60646;55.802;37.032;2023-04-16T02:18:54;101220.84;;;5.82
67515;BMP280;60646;55.802;37.032;2023-04-16T02:21:22;101207.34;;;5.73
67515;BMP280;60646;55.802;37.032;2023-04-16T02:23:48;101190.09;;;5.65
67515;BMP280;60646;55.802;37.032;2023-04-16T02:26:18;101230.66;;;5.85
67515;BMP280;60646;55.802;37.032;2023-04-16T02:28:44;101232.13;;;5.86
67515;BMP280;60646;55.802;37.032;2023-04-16T02:31:11;101201.44;;;5.65
67515;BMP280;60646;55.802;37.032;2023-04-16T02:33:42;101206.69;;;5.69
67515;BMP280;60646;55.802;37.032;2023-04-16T02:36:12;101225.47;;;5.78
67515;BMP280;60646;55.802;37.032;2023-04-16T02:38:37;101210.16;;;5.66
67515;BMP280;60646;55.802;37.032;2023-04-16T02:41:04;101208.66;;;5.65
67515;BMP280;60646;55.802;37.032;2023-04-16T02:43:29;101198.97;;;5.55
67515;BMP280;60646;55.802;37.032;2023-04-16T02:45:58;101228.72;;;5.66
67515;BMP280;60646;55.802;37.032;2023-04-16T02:48:24;101199.44;;;5.50
67515;BMP280;60646;55.802;37.032;2023-04-16T02:50:50;101223.59;;;5.55
67515;BMP280;60646;55.802;37.032;2023-04-16T02:53:15;101228.47;;;5.57
67515;BMP280;60646;55.802;37.032;2023-04-16T02:55:48;101228.13;;;5.55
67515;BMP280;60646;55.802;37.032;2023-04-16T02:58:14;101219.84;;;5.53
67515;BMP280;60646;55.802;37.032;2023-04-16T03:00:40;101234.19;;;5.55
67515;BMP280;60646;55.802;37.032;2023-04-16T03:03:06;101214.56;;;5.53
67515;BMP280;60646;55.802;37.032;2023-04-16T03:05:32;101227.44;;;5.51
67515;BMP280;60646;55.802;37.032;2023-04-16T03:07:57;101232.25;;;5.56
67515;BMP280;60646;55.802;37.032;2023-04-16T03:10:23;101260.38;;;5.73
67515;BMP280;60646;55.802;37.032;2023-04-16T03:12:49;101239.41;;;5.59
67515;BMP280;60646;55.802;37.032;2023-04-16T03:15:15;101223.66;;;5.52
67515;BMP280;60646;55.802;37.032;2023-04-16T03:17:41;101253.56;;;5.72
67515;BMP280;60646;55.802;37.032;2023-04-16T03:20:09;101239.06;;;5.57
67515;BMP280;60646;55.802;37.032;2023-04-16T03:22:35;101245.06;;;5.61
67515;BMP280;60646;55.802;37.032;2023-04-16T03:25:00;101246.56;;;5.62
67515;BMP280;60646;55.802;37.032;2023-04-16T03:27:31;101242.34;;;5.64
67515;BMP280;60646;55.802;37.032;2023-04-16T03:29:57;101237.94;;;5.58
67515;BMP280;60646;55.802;37.032;2023-04-16T03:32:24;101261.06;;;5.77
67515;BMP280;60646;55.802;37.032;2023-04-16T03:34:50;101237.06;;;5.64
67515;BMP280;60646;55.802;37.032;2023-04-16T03:37:15;101264.78;;;5.83
67515;BMP280;60646;55.802;37.032;2023-04-16T03:39:41;101220.84;;;5.59
67515;BMP280;60646;55.802;37.032;2023-04-16T03:42:13;101237.66;;;5.72
67515;BMP280;60646;55.802;37.032;2023-04-16T03:44:40;101236.81;;;5.79
67515;BMP280;60646;55.802;37.032;2023-04-16T03:47:05;101213.88;;;5.68
67515;BMP280;60646;55.802;37.032;2023-04-16T03:49:31;101223.25;;;5.73
67515;BMP280;60646;55.802;37.032;2023-04-16T03:51:57;101229.94;;;5.81
67515;BMP280;60646;55.802;37.032;2023-04-16T03:54:25;101234.38;;;5.88
67515;BMP280;60646;55.802;37.032;2023-04-16T03:57:01;101228.69;;;5.89
67515;BMP280;60646;55.802;37.032;2023-04-16T03:59:27;101249.88;;;6.12
67515;BMP280;60646;55.802;37.032;2023-04-16T04:01:53;101263.66;;;6.23
67515;BMP280;60646;55.802;37.032;2023-04-16T04:04:19;101238.50;;;6.12
67515;BMP280;60646;55.802;37.032;2023-04-16T04:06:45;101267.19;;;6.37
67515;BMP280;60646;55.802;37.032;2023-04-16T04:09:12;101238.63;;;6.25
67515;BMP280;60646;55.802;37.032;2023-04-16T04:11:38;101223.19;;;6.19
67515;BMP280;60646;55.802;37.032;2023-04-16T04:14:04;101233.84;;;6.36
67515;BMP280;60646;55.802;37.032;2023-04-16T04:16:30;101263.59;;;6.66
67515;BMP280;60646;55.802;37.032;2023-04-16T04:18:58;101221.13;;;6.47
67515;BMP280;60646;55.802;37.032;2023-04-16T04:21:49;101247.75;;;6.79
67515;BMP280;60646;55.802;37.032;2023-04-16T04:24:16;101240.44;;;6.83
67515;BMP280;60646;55.802;37.032;2023-04-16T04:26:44;101220.34;;;6.82
67515;BMP280;60646;55.802;37.032;2023-04-16T04:29:12;101255.94;;;7.20
67515;BMP280;60646;55.802;37.032;2023-04-16T04:31:38;101239.34;;;7.16
67515;BMP280;60646;55.802;37.032;2023-04-16T04:34:03;101227.75;;;7.23
67515;BMP280;60646;55.802;37.032;2023-04-16T04:36:29;101246.94;;;7.47
67515;BMP280;60646;55.802;37.032;2023-04-16T04:38:55;101264.19;;;7.71
67515;BMP280;60646;55.802;37.032;2023-04-16T04:41:21;101262.00;;;7.82
67515;BMP280;60646;55.802;37.032;2023-04-16T04:43:47;101246.38;;;7.84
67515;BMP280;60646;55.802;37.032;2023-04-16T04:46:13;101264.31;;;8.09
67515;BMP280;60646;55.802;37.032;2023-04-16T04:48:39;101257.19;;;8.18
67515;BMP280;60646;55.802;37.032;2023-04-16T04:51:05;101232.63;;;8.14
67515;BMP280;60646;55.802;37.032;2023-04-16T04:53:31;101233.72;;;8.29
67515;BMP280;60646;55.802;37.032;2023-04-16T04:56:22;101232.13;;;8.45
67515;BMP280;60646;55.802;37.032;2023-04-16T04:58:51;101236.41;;;8.55
67515;BMP280;60646;55.802;37.032;2023-04-16T05:01:18;101223.06;;;8.55
67515;BMP280;60646;55.802;37.032;2023-04-16T05:03:44;101263.47;;;8.91
67515;BMP280;60646;55.802;37.032;2023-04-16T05:06:35;101252.59;;;8.98
67515;BMP280;60646;55.802;37.032;2023-04-16T05:09:05;101259.47;;;9.08
67515;BMP280;60646;55.802;37.032;2023-04-16T05:11:32;101216.47;;;8.97
67515;BMP280;60646;55.802;37.032;2023-04-16T05:14:00;101222.25;;;9.17
67515;BMP280;60646;55.802;37.032;2023-04-16T05:16:26;101230.97;;;9.30
67515;BMP280;60646;55.802;37.032;2023-04-16T05:18:51;101243.06;;;9.57
67515;BMP280;60646;55.802;37.032;2023-04-16T05:21:17;101215.84;;;9.49
67515;BMP280;60646;55.802;37.032;2023-04-16T05:23:43;101224.31;;;9.69
67515;BMP280;60646;55.802;37.032;2023-04-16T05:26:09;101179.78;;;9.57
67515;BMP280;60646;55.802;37.032;2023-04-16T05:28:34;101205.00;;;9.87
67515;BMP280;60646;55.802;37.032;2023-04-16T05:31:01;101205.81;;;9.96
67515;BMP280;60646;55.802;37.032;2023-04-16T05:33:48;101219.69;;;10.13
67515;BMP280;60646;55.802;37.032;2023-04-16T05:36:14;101220.03;;;10.24
67515;BMP280;60646;55.802;37.032;2023-04-16T05:38:43;101191.06;;;10.23
67515;BMP280;60646;55.802;37.032;2023-04-16T05:41:09;101209.41;;;10.42
67515;BMP280;60646;55.802;37.032;2023-04-16T05:43:35;101216.59;;;10.54
67515;BMP280;60646;55.802;37.032;2023-04-16T05:46:00;101240.25;;;10.74
67515;BMP280;60646;55.802;37.032;2023-04-16T05:48:29;101175.13;;;10.41
67515;BMP280;60646;55.802;37.032;2023-04-16T05:50:55;101219.19;;;10.85
67515;BMP280;60646;55.802;37.032;2023-04-16T05:53:21;101235.09;;;11.07
67515;BMP280;60646;55.802;37.032;2023-04-16T05:55:48;101217.84;;;10.99
67515;BMP280;60646;55.802;37.032;2023-04-16T05:58:14;101225.72;;;11.11
67515;BMP280;60646;55.802;37.032;2023-04-16T06:00:42;101205.66;;;11.07
67515;BMP280;60646;55.802;37.032;2023-04-16T06:03:08;101213.09;;;11.21
67515;BMP280;60646;55.802;37.032;2023-04-16T06:05:37;101227.69;;;11.38
67515;BMP280;60646;55.802;37.032;2023-04-16T06:08:06;101223.34;;;11.50
67515;BMP280;60646;55.802;37.032;2023-04-16T06:10:34;101237.91;;;11.67
67515;BMP280;60646;55.802;37.032;2023-04-16T06:13:00;101230.00;;;11.73
67515;BMP280;60646;55.802;37.032;2023-04-16T06:15:26;101231.03;;;11.84
67515;BMP280;60646;55.802;37.032;2023-04-16T06:17:57;101209.47;;;11.79
67515;BMP280;60646;55.802;37.032;2023-04-16T06:20:23;101218.09;;;11.92
67515;BMP280;60646;55.802;37.032;2023-04-16T06:22:52;101204.69;;;11.92
67515;BMP280;60646;55.802;37.032;2023-04-16T06:25:17;101211.19;;;12.00
67515;BMP280;60646;55.802;37.032;2023-04-16T06:27:43;101211.75;;;12.13
67515;BMP280;60646;55.802;37.032;2023-04-16T06:30:15;101187.97;;;12.06
67515;BMP280;60646;55.802;37.032;2023-04-16T06:32:42;101214.34;;;12.31
67515;BMP280;60646;55.802;37.032;2023-04-16T06:35:09;101231.06;;;12.50
67515;BMP280;60646;55.802;37.032;2023-04-16T06:37:34;101216.31;;;12.54
67515;BMP280;60646;55.802;37.032;2023-04-16T06:40:03;101206.59;;;12.57
67515;BMP280;60646;55.802;37.032;2023-04-16T06:42:30;101221.56;;;12.72
67515;BMP280;60646;55.802;37.032;2023-04-16T06:44:56;101207.41;;;12.72
67515;BMP280;60646;55.802;37.032;2023-04-16T06:47:22;101206.75;;;12.77
67515;BMP280;60646;55.802;37.032;2023-04-16T06:49:48;101203.28;;;12.85
67515;BMP280;60646;55.802;37.032;2023-04-16T06:52:14;101204.41;;;12.94
67515;BMP280;60646;55.802;37.032;2023-04-16T06:54:39;101222.41;;;13.17
67515;BMP280;60646;55.802;37.032;2023-04-16T06:57:05;101201.13;;;13.13
67515;BMP280;60646;55.802;37.032;2023-04-16T06:59:31;101222.00;;;13.33
67515;BMP280;60646;55.802;37.032;2023-04-16T07:01:57;101212.44;;;13.32
67515;BMP280;60646;55.802;37.032;2023-04-16T07:04:23;101201.81;;;13.37
67515;BMP280;60646;55.802;37.032;2023-04-16T07:06:49;101199.47;;;13.45
67515;BMP280;60646;55.802;37.032;2023-04-16T07:09:15;101202.25;;;13.50
67515;BMP280;60646;55.802;37.032;2023-04-16T07:12:26;101216.25;;;13.69
67515;BMP280;60646;55.802;37.032;2023-04-16T07:14:52;101171.88;;;13.44
67515;BMP280;60646;55.802;37.032;2023-04-16T07:17:18;101208.72;;;13.73
67515;BMP280;60646;55.802;37.032;2023-04-16T07:19:43;101192.44;;;13.77
67515;BMP280;60646;55.802;37.032;2023-04-16T07:22:09;101181.88;;;13.73
67515;BMP280;60646;55.802;37.032;2023-04-16T07:24:35;101187.41;;;13.84
67515;BMP280;60646;55.802;37.032;2023-04-16T07:27:01;101182.31;;;13.86
67515;BMP280;60646;55.802;37.032;2023-04-16T07:29:27;101202.38;;;14.05
67515;BMP280;60646;55.802;37.032;2023-04-16T07:31:56;101209.59;;;14.14
67515;BMP280;60646;55.802;37.032;2023-04-16T07:34:23;101175.19;;;14.03
67515;BMP280;60646;55.802;37.032;2023-04-16T07:37:14;101186.00;;;14.24
67515;BMP280;60646;55.802;37.032;2023-04-16T07:39:43;101186.53;;;14.28
67515;BMP280;60646;55.802;37.032;2023-04-16T07:42:09;101199.91;;;14.42
67515;BMP280;60646;55.802;37.032;2023-04-16T07:44:36;101204.16;;;14.49
67515;BMP280;60646;55.802;37.032;2023-04-16T07:47:02;101193.19;;;14.52
67515;BMP280;60646;55.802;37.032;2023-04-16T07:49:27;101186.16;;;14.55
67515;BMP280;60646;55.802;37.032;2023-04-16T07:51:53;101184.50;;;14.63
67515;BMP280;60646;55.802;37.032;2023-04-16T07:54:19;101188.78;;;14.75
67515;BMP280;60646;55.802;37.032;2023-04-16T07:56:45;101183.69;;;14.77
67515;BMP280;60646;55.802;37.032;2023-04-16T07:59:11;101190.28;;;14.96
67515;BMP280;60646;55.802;37.032;2023-04-16T08:01:37;101175.03;;;14.93
67515;BMP280;60646;55.802;37.032;2023-04-16T08:04:03;101169.66;;;14.93
67515;BMP280;60646;55.802;37.032;2023-04-16T08:06:30;101191.94;;;15.19
67515;BMP280;60646;55.802;37.032;2023-04-16T08:08:56;101187.78;;;15.18
67515;BMP280;60646;55.802;37.032;2023-04-16T08:11:23;101175.78;;;15.19
67515;BMP280;60646;55.802;37.032;2023-04-16T08:13:52;101164.53;;;15.21
67515;BMP280;60646;55.802;37.032;2023-04-16T08:16:18;101170.50;;;15.30
67515;BMP280;60646;55.802;37.032;2023-04-16T08:18:44;101166.13;;;15.38
67515;BMP280;60646;55.802;37.032;2023-04-16T08:24:12;101153.91;;;15.43
67515;BMP280;60646;55.802;37.032;2023-04-16T08:26:38;101172.66;;;15.58
67515;BMP280;60646;55.802;37.032;2023-04-16T08:29:29;101184.03;;;15.78
67515;BMP280;60646;55.802;37.032;2023-04-16T08:31:55;101156.25;;;15.61
67515;BMP280;60646;55.802;37.032;2023-04-16T08:34:21;101174.25;;;15.81
67515;BMP280;60646;55.802;37.032;2023-04-16T08:37:12;101175.53;;;15.91
67515;BMP280;60646;55.802;37.032;2023-04-16T08:39:38;101135.94;;;15.66
67515;BMP280;60646;55.802;37.032;2023-04-16T08:42:04;101172.13;;;15.96
67515;BMP280;60646;55.802;37.032;2023-04-16T08:44:31;101156.72;;;16.02
67515;BMP280;60646;55.802;37.032;2023-04-16T08:46:59;101129.72;;;15.91
67515;BMP280;60646;55.802;37.032;2023-04-16T08:49:25;101124.31;;;15.91
67515;BMP280;60646;55.802;37.032;2023-04-16T08:51:55;101126.09;;;15.99
67515;BMP280;60646;55.802;37.032;2023-04-16T08:54:37;101155.31;;;16.23
67515;BMP280;60646;55.802;37.032;2023-04-16T08:57:04;101160.78;;;16.34
67515;BMP280;60646;55.802;37.032;2023-04-16T08:59:31;101139.41;;;16.25
67515;BMP280;60646;55.802;37.032;2023-04-16T09:01:57;101132.81;;;16.26
67515;BMP280;60646;55.802;37.032;2023-04-16T09:04:27;101141.16;;;16.39
67515;BMP280;60646;55.802;37.032;2023-04-16T09:06:54;101125.22;;;16.36
67515;BMP280;60646;55.802;37.032;2023-04-16T09:09:22;101128.19;;;16.43
67515;BMP280;60646;55.802;37.032;2023-04-16T09:11:54;101114.19;;;16.50
67515;BMP280;60646;55.802;37.032;2023-04-16T09:14:20;101124.78;;;16.54
67515;BMP280;60646;55.802;37.032;2023-04-16T09:16:46;101136.31;;;16.65
67515;BMP280;60646;55.802;37.032;2023-04-16T09:19:15;101142.22;;;16.81
67515;BMP280;60646;55.802;37.032;2023-04-16T09:21:44;101117.91;;;16.69
67515;BMP280;60646;55.802;37.032;2023-04-16T09:24:11;101129.22;;;16.79
67515;BMP280;60646;55.802;37.032;2023-04-16T09:27:02;101140.28;;;16.92
67515;BMP280;60646;55.802;37.032;2023-04-16T09:29:36;101137.31;;;16.96
67515;BMP280;60646;55.802;37.032;2023-04-16T09:32:04;101131.91;;;16.96
67515;BMP280;60646;55.802;37.032;2023-04-16T09:34:32;101119.41;;;16.87
67515;BMP280;60646;55.802;37.032;2023-04-16T09:37:17;101121.88;;;16.91
67515;BMP280;60646;55.802;37.032;2023-04-16T09:39:44;101141.75;;;16.99
67515;BMP280;60646;55.802;37.032;2023-04-16T09:42:41;101116.22;;;16.89
67515;BMP280;60646;55.802;37.032;2023-04-16T09:45:33;101128.97;;;17.05
67515;BMP280;60646;55.802;37.032;2023-04-16T09:48:12;101112.06;;;16.93
67515;BMP280;60646;55.802;37.032;2023-04-16T09:50:38;101126.03;;;17.03
67515;BMP280;60646;55.802;37.032;2023-04-16T09:53:04;101116.72;;;17.04
67515;BMP280;60646;55.802;37.032;2023-04-16T09:55:31;101123.59;;;17.05
67515;BMP280;60646;55.802;37.032;2023-04-16T09:57:59;101108.34;;;17.02
67515;BMP280;60646;55.802;37.032;2023-04-16T10:00:59;101111.81;;;17.08
67515;BMP280;60646;55.802;37.032;2023-04-16T10:03:32;101114.22;;;17.06
67515;BMP280;60646;55.802;37.032;2023-04-16T10:06:00;101080.16;;;16.86
67515;BMP280;60646;55.802;37.032;2023-04-16T10:08:26;101107.63;;;17.07
67515;BMP280;60646;55.802;37.032;2023-04-16T10:10:53;101107.38;;;17.05
67515;BMP280;60646;55.802;37.032;2023-04-16T10:13:20;101099.03;;;17.03
67515;BMP280;60646;55.802;37.032;2023-04-16T10:15:46;101101.00;;;17.08
67515;BMP280;60646;55.802;37.032;2023-04-16T10:18:13;101098.78;;;17.12
67515;BMP280;60646;55.802;37.032;2023-04-16T10:20:39;101081.34;;;17.02
67515;BMP280;60646;55.802;37.032;2023-04-16T10:23:09;101068.13;;;17.04
67515;BMP280;60646;55.802;37.032;2023-04-16T10:25:35;101070.78;;;17.09
67515;BMP280;60646;55.802;37.032;2023-04-16T10:28:28;101094.13;;;17.18
67515;BMP280;60646;55.802;37.032;2023-04-16T10:31:05;101088.72;;;17.18
67515;BMP280;60646;55.802;37.032;2023-04-16T10:33:38;101093.34;;;17.23
67515;BMP280;60646;55.802;37.032;2023-04-16T10:38:48;101090.41;;;17.26
67515;BMP280;60646;55.802;37.032;2023-04-16T10:41:14;101057.28;;;17.15
67515;BMP280;60646;55.802;37.032;2023-04-16T10:43:46;101043.53;;;17.13
67515;BMP280;60646;55.802;37.032;2023-04-16T10:46:32;101077.88;;;17.29
67515;BMP280;60646;55.802;37.032;2023-04-16T10:49:12;101086.69;;;17.35
67515;BMP280;60646;55.802;37.032;2023-04-16T10:51:38;101082.78;;;17.36
67515;BMP280;60646;55.802;37.032;2023-04-16T10:56:33;101059.22;;;17.31
67515;BMP280;60646;55.802;37.032;2023-04-16T10:58:59;101069.97;;;17.42
67515;BMP280;60646;55.802;37.032;2023-04-16T11:01:31;101076.34;;;17.44
67515;BMP280;60646;55.802;37.032;2023-04-16T11:03:58;101071.47;;;17.43
67515;BMP280;60646;55.802;37.032;2023-04-16T11:06:27;101074.63;;;17.47
67515;BMP280;60646;55.802;37.032;2023-04-16T11:08:54;101043.97;;;17.28
67515;BMP280;60646;55.802;37.032;2023-04-16T11:11:45;101071.44;;;17.54
67515;BMP280;60646;55.802;37.032;2023-04-16T11:14:11;101049.09;;;17.37
67515;BMP280;60646;55.802;37.032;2023-04-16T11:16:39;101041.97;;;17.39
67515;BMP280;60646;55.802;37.032;2023-04-16T11:19:05;101050.78;;;17.51
67515;BMP280;60646;55.802;37.032;2023-04-16T11:21:31;101054.69;;;17.50
67515;BMP280;60646;55.802;37.032;2023-04-16T11:23:57;101046.38;;;17.48
67515;BMP280;60646;55.802;37.032;2023-04-16T11:26:25;101045.09;;;17.55
67515;BMP280;60646;55.802;37.032;2023-04-16T11:28:52;101037.72;;;17.55
67515;BMP280;60646;55.802;37.032;2023-04-16T11:32:03;101034.81;;;17.59
67515;BMP280;60646;55.802;37.032;2023-04-16T11:34:29;101026.72;;;17.53
67515;BMP280;60646;55.802;37.032;2023-04-16T11:36:55;101043.59;;;17.65
67515;BMP280;60646;55.802;37.032;2023-04-16T11:39:22;101044.81;;;17.69
67515;BMP280;60646;55.802;37.032;2023-04-16T11:41:50;101037.44;;;17.70
67515;BMP280;60646;55.802;37.032;2023-04-16T11:44:25;101033.50;;;17.76
67515;BMP280;60646;55.802;37.032;2023-04-16T11:46:52;101035.00;;;17.72
67515;BMP280;60646;55.802;37.032;2023-04-16T11:49:30;101018.25;;;17.73
67515;BMP280;60646;55.802;37.032;2023-04-16T11:51:57;101001.38;;;17.62
67515;BMP280;60646;55.802;37.032;2023-04-16T11:54:23;101029.75;;;17.85
67515;BMP280;60646;55.802;37.032;2023-04-16T11:56:51;101026.31;;;17.84
67515;BMP280;60646;55.802;37.032;2023-04-16T12:01:53;101031.19;;;17.91
67515;BMP280;60646;55.802;37.032;2023-04-16T12:04:26;101028.22;;;17.95
67515;BMP280;60646;55.802;37.032;2023-04-16T12:07:08;101026.94;;;18.01
67515;BMP280;60646;55.802;37.032;2023-04-16T12:09:35;101012.72;;;17.95
67515;BMP280;60646;55.802;37.032;2023-04-16T12:12:02;101017.31;;;18.06
67515;BMP280;60646;55.802;37.032;2023-04-16T12:14:28;101008.69;;;18.07
67515;BMP280;60646;55.802;37.032;2023-04-16T12:16:55;100996.97;;;17.99
67515;BMP280;60646;55.802;37.032;2023-04-16T12:19:21;100999.81;;;18.12
67515;BMP280;60646;55.802;37.032;2023-04-16T12:21:48;100997.34;;;18.14
67515;BMP280;60646;55.802;37.032;2023-04-16T12:24:16;100986.59;;;18.03
67515;BMP280;60646;55.802;37.032;2023-04-16T12:26:46;100977.50;;;18.06
67515;BMP280;60646;55.802;37.032;2023-04-16T12:29:21;100965.19;;;18.05
67515;BMP280;60646;55.802;37.032;2023-04-16T12:31:48;100981.09;;;18.14
67515;BMP280;60646;55.802;37.032;2023-04-16T12:34:50;100990.84;;;18.29
67515;BMP280;60646;55.802;37.032;2023-04-16T12:37:16;100954.16;;;18.03
67515;BMP280;60646;55.802;37.032;2023-04-16T12:39:43;100974.66;;;18.17
67515;BMP280;60646;55.802;37.032;2023-04-16T12:42:08;100967.09;;;18.16
67515;BMP280;60646;55.802;37.032;2023-04-16T12:44:36;100958.44;;;18.17
67515;BMP280;60646;55.802;37.032;2023-04-16T12:47:05;100949.09;;;18.19
67515;BMP280;60646;55.802;37.032;2023-04-16T12:49:31;100965.72;;;18.34
67515;BMP280;60646;55.802;37.032;2023-04-16T12:51:57;100967.91;;;18.35
67515;BMP280;60646;55.802;37.032;2023-04-16T12:55:09;100955.88;;;18.31
67515;BMP280;60646;55.802;37.032;2023-04-16T12:58:00;100940.91;;;18.30
67515;BMP280;60646;55.802;37.032;2023-04-16T13:00:26;100942.84;;;18.35
67515;BMP280;60646;55.802;37.032;2023-04-16T13:02:51;100946.47;;;18.37
67515;BMP280;60646;55.802;37.032;2023-04-16T13:05:17;100953.78;;;18.48
67515;BMP280;60646;55.802;37.032;2023-04-16T13:07:44;100951.06;;;18.48
67515;BMP280;60646;55.802;37.032;2023-04-16T13:10:10;100958.59;;;18.55
67515;BMP280;60646;55.802;37.032;2023-04-16T13:12:36;100948.03;;;18.57
67515;BMP280;60646;55.802;37.032;2023-04-16T13:15:03;100939.94;;;18.51
67515;BMP280;60646;55.802;37.032;2023-04-16T13:17:57;100944.69;;;18.69
67515;BMP280;60646;55.802;37.032;2023-04-16T13:20:23;100935.38;;;18.65
67515;BMP280;60646;55.802;37.032;2023-04-16T13:22:49;100910.66;;;18.50
67515;BMP280;60646;55.802;37.032;2023-04-16T13:25:15;100940.19;;;18.72
67515;BMP280;60646;55.802;37.032;2023-04-16T13:28:06;100934.53;;;18.75
67515;BMP280;60646;55.802;37.032;2023-04-16T13:30:33;100911.94;;;18.67
67515;BMP280;60646;55.802;37.032;2023-04-16T13:32:59;100917.84;;;18.71
67515;BMP280;60646;55.802;37.032;2023-04-16T13:35:53;100925.63;;;18.80
67515;BMP280;60646;55.802;37.032;2023-04-16T13:38:19;100905.53;;;18.70
67515;BMP280;60646;55.802;37.032;2023-04-16T13:40:44;100909.91;;;18.73
67515;BMP280;60646;55.802;37.032;2023-04-16T13:43:11;100914.06;;;18.80
67515;BMP280;60646;55.802;37.032;2023-04-16T13:45:38;100906.16;;;18.76
67515;BMP280;60646;55.802;37.032;2023-04-16T13:48:04;100896.31;;;18.79
67515;BMP280;60646;55.802;37.032;2023-04-16T13:50:30;100897.25;;;18.81
67515;BMP280;60646;55.802;37.032;2023-04-16T13:52:56;100904.53;;;18.92
67515;BMP280;60646;55.802;37.032;2023-04-16T13:55:21;100917.47;;;18.99
67515;BMP280;60646;55.802;37.032;2023-04-16T13:58:12;100894.94;;;18.91
67515;BMP280;60646;55.802;37.032;2023-04-16T14:00:38;100889.50;;;18.91
67515;BMP280;60646;55.802;37.032;2023-04-16T14:03:04;100902.69;;;19.00
67515;BMP280;60646;55.802;37.032;2023-04-16T14:05:55;100894.13;;;18.96
67515;BMP280;60646;55.802;37.032;2023-04-16T14:08:21;100898.06;;;18.95
67515;BMP280;60646;55.802;37.032;2023-04-16T14:10:47;100910.28;;;19.07